F/V Le Dolmen — FHMD — position and weather

sailwx.info

Track history (hours):
 
Tides and Currents Weather Stations Pressure Air Temp Water Temp Dewpoint Dewpoint Depression Visibility Wind Speed Wind Dir Waves Ship Positions

F/V Le Dolmen

Last reported at 2014-Oct-31 05:34 UTC. Time now 2014-Nov-01 12:46 UTC.
Position N 47°44' W 003°22'.

Length 18 m.

Type: Fishing. MMSI: 228374000.

Date/timePositionNaut miles runAvg speedWind from/ knotsBaromVisibWave heightAir tempDewpointWater temp
2014-Oct-31 05:34N 47°44' W 003°22'0 0.0
2014-Oct-31 04:34N 47°44' W 003°22'0 0.0
2014-Oct-31 03:33N 47°44' W 003°22'0 0.0
2014-Oct-31 02:33N 47°44' W 003°22'0 0.0
2014-Oct-31 01:34N 47°44' W 003°22'0 0.0
2014-Oct-31 00:33N 47°44' W 003°22'6 6.4
2014-Oct-30 23:33N 47°38' W 003°19'8 7.7
2014-Oct-30 22:33N 47°31' W 003°13'8 7.6
2014-Oct-30 21:30N 47°24' W 003°07'10 7.6
2014-Oct-30 20:11N 47°17' W 002°56'5 6.8
2014-Oct-30 19:27N 47°14' W 002°51'2 0.2
2014-Oct-30 09:19N 47°13' W 002°53'2 0.6
2014-Oct-30 05:27N 47°13' W 002°50'15 1.2
2014-Oct-29 17:33N 46°58' W 002°52'2 0.6
2014-Oct-29 14:15N 46°57' W 002°55'3 2.9
2014-Oct-29 13:19N 46°59' W 002°57'11 3.4
2014-Oct-29 10:13N 46°59' W 002°42'3 3.0
2014-Oct-29 09:23N 47°00' W 002°39'3 2.9
2014-Oct-29 08:29N 46°58' W 002°39'3 2.6
2014-Oct-29 07:23N 46°58' W 002°43'3 3.5
2014-Oct-29 06:33N 47°01' W 002°44'8 7.5
2014-Oct-29 05:33N 47°08' W 002°40'9 9.3
2014-Oct-29 04:32N 47°17' W 002°35'3 2.3
2014-Oct-29 03:14N 47°18' W 002°31'3 4.0
2014-Oct-29 02:30N 47°21' W 002°31'0 0.0
2014-Oct-29 01:32N 47°21' W 002°31'4 0.8
2014-Oct-28 21:04N 47°18' W 002°35'5 9.3
2014-Oct-28 20:29N 47°13' W 002°37'11 9.1
2014-Oct-28 19:15N 47°02' W 002°42'7 0.7
2014-Oct-28 09:28N 47°00' W 002°33'4 2.9
2014-Oct-28 08:06N 46°58' W 002°37'3 3.2
2014-Oct-28 07:15N 46°56' W 002°40'5 2.0
2014-Oct-28 04:33N 47°01' W 002°44'5 2.4
2014-Oct-28 02:33N 46°58' W 002°38'3 0.6
2014-Oct-27 22:31N 46°57' W 002°42'15 1.3
2014-Oct-27 11:29N 47°11' W 002°50'3 3.1
2014-Oct-27 10:26N 47°11' W 002°55'2 2.7
2014-Oct-27 09:33N 47°09' W 002°57'3 3.4
2014-Oct-27 08:32N 47°09' W 002°52'3 2.5
2014-Oct-27 07:33N 47°11' W 002°52'6 5.3
2014-Oct-27 06:26N 47°15' W 002°58'18 9.6
2014-Oct-27 04:33N 47°30' W 003°13'9 9.4
2014-Oct-27 03:33N 47°38' W 003°20'5 5.5
2014-Oct-27 02:33N 47°44' W 003°22'0 0.0
2014-Oct-27 01:33N 47°44' W 003°22'0 0.0
2014-Oct-27 00:33N 47°44' W 003°22'0 0.1
2014-Oct-26 23:33N 47°44' W 003°22'0 0.0
2014-Oct-26 22:33N 47°44' W 003°22'4 4.3
2014-Oct-26 21:33N 47°39' W 003°21'1010.0
2014-Oct-26 20:33N 47°31' W 003°13'  
2014-Oct-22 21:15N 47°35' W 003°17'7 9.8
2014-Oct-22 20:33N 47°40' W 003°22'3 3.3
2014-Oct-22 19:33N 47°44' W 003°22'0 0.1
2014-Oct-22 18:33N 47°44' W 003°22'  
Track history (hours):
 
Tides and Currents Weather Stations Pressure Air Temp Water Temp Dewpoint Dewpoint Depression Visibility Wind Speed Wind Dir Waves Ship Positions

F/V Le Dolmen

Last reported at 2014-Oct-31 05:34 UTC. Time now 2014-Nov-01 12:46 UTC.
Position N 47°44' W 003°22'.

Length 18 m.

Type: Fishing. MMSI: 228374000.

Date/timePositionNaut miles runAvg speedWind from/ knotsBaromVisibWave heightAir tempDewpointWater temp
2014-Oct-31 05:34N 47°44' W 003°22'0 0.0
2014-Oct-31 04:34N 47°44' W 003°22'0 0.0
2014-Oct-31 03:33N 47°44' W 003°22'0 0.0
2014-Oct-31 02:33N 47°44' W 003°22'0 0.0
2014-Oct-31 01:34N 47°44' W 003°22'0 0.0
2014-Oct-31 00:33N 47°44' W 003°22'6 6.4
2014-Oct-30 23:33N 47°38' W 003°19'8 7.7
2014-Oct-30 22:33N 47°31' W 003°13'8 7.6
2014-Oct-30 21:30N 47°24' W 003°07'10 7.6
2014-Oct-30 20:11N 47°17' W 002°56'5 6.8
2014-Oct-30 19:27N 47°14' W 002°51'2 0.2
2014-Oct-30 09:19N 47°13' W 002°53'2 0.6
2014-Oct-30 05:27N 47°13' W 002°50'15 1.2
2014-Oct-29 17:33N 46°58' W 002°52'2 0.6
2014-Oct-29 14:15N 46°57' W 002°55'3 2.9
2014-Oct-29 13:19N 46°59' W 002°57'11 3.4
2014-Oct-29 10:13N 46°59' W 002°42'3 3.0
2014-Oct-29 09:23N 47°00' W 002°39'3 2.9
2014-Oct-29 08:29N 46°58' W 002°39'3 2.6
2014-Oct-29 07:23N 46°58' W 002°43'3 3.5
2014-Oct-29 06:33N 47°01' W 002°44'8 7.5
2014-Oct-29 05:33N 47°08' W 002°40'9 9.3
2014-Oct-29 04:32N 47°17' W 002°35'3 2.3
2014-Oct-29 03:14N 47°18' W 002°31'3 4.0
2014-Oct-29 02:30N 47°21' W 002°31'0 0.0
2014-Oct-29 01:32N 47°21' W 002°31'4 0.8
2014-Oct-28 21:04N 47°18' W 002°35'5 9.3
2014-Oct-28 20:29N 47°13' W 002°37'11 9.1
2014-Oct-28 19:15N 47°02' W 002°42'7 0.7
2014-Oct-28 09:28N 47°00' W 002°33'4 2.9
2014-Oct-28 08:06N 46°58' W 002°37'3 3.2
2014-Oct-28 07:15N 46°56' W 002°40'5 2.0
2014-Oct-28 04:33N 47°01' W 002°44'5 2.4
2014-Oct-28 02:33N 46°58' W 002°38'3 0.6
2014-Oct-27 22:31N 46°57' W 002°42'15 1.3
2014-Oct-27 11:29N 47°11' W 002°50'3 3.1
2014-Oct-27 10:26N 47°11' W 002°55'2 2.7
2014-Oct-27 09:33N 47°09' W 002°57'3 3.4
2014-Oct-27 08:32N 47°09' W 002°52'3 2.5
2014-Oct-27 07:33N 47°11' W 002°52'6 5.3
2014-Oct-27 06:26N 47°15' W 002°58'18 9.6
2014-Oct-27 04:33N 47°30' W 003°13'9 9.4
2014-Oct-27 03:33N 47°38' W 003°20'5 5.5
2014-Oct-27 02:33N 47°44' W 003°22'0 0.0
2014-Oct-27 01:33N 47°44' W 003°22'0 0.0
2014-Oct-27 00:33N 47°44' W 003°22'0 0.1
2014-Oct-26 23:33N 47°44' W 003°22'0 0.0
2014-Oct-26 22:33N 47°44' W 003°22'4 4.3
2014-Oct-26 21:33N 47°39' W 003°21'1010.0
2014-Oct-26 20:33N 47°31' W 003°13'  
2014-Oct-22 21:15N 47°35' W 003°17'7 9.8
2014-Oct-22 20:33N 47°40' W 003°22'3 3.3
2014-Oct-22 19:33N 47°44' W 003°22'0 0.1
2014-Oct-22 18:33N 47°44' W 003°22'  

Dump ship's entire track history